Terminal Aerodrome Forecast
Issued by NWS Wilmington, OH

Current Version | Previous Version | Text Only | Print | Product List | Glossary Off
Versions: 1 2 3 4 5 6 7 8 9 10 11 12 13 14 15 16 17 18 19 20 21 22 23 24 25 26 27 28 29 30 31 32 33

000
FTUS41 KILN 191300 AAA
TAFCVG
TAF AMD
KCVG 191306Z 1913/2018 22003KT 1/4SM FG VV001
     FM191400 23004KT 1SM BR BKN006
     FM191500 23004KT 4SM HZ SCT010 SCT040
     FM191700 24008KT P6SM BKN040
     FM200300 23006KT P6SM VCTS BKN040CB
     FM200900 21005KT P6SM BKN040
     FM201400 26008KT P6SM SCT040=

USA.gov is the U.S. government's official web portal to all federal, state and local government web resources and services.